sensor_id;sensor_type;location;lat;lon;timestamp;temperature;humidity
8402;DHT22;4238;48.404;9.498;2022-08-19T00:00:10;17.50;99.90
8402;DHT22;4238;48.404;9.498;2022-08-19T00:02:39;17.40;99.90
8402;DHT22;4238;48.404;9.498;2022-08-19T00:05:09;17.40;99.90
8402;DHT22;4238;48.404;9.498;2022-08-19T00:07:37;17.40;99.90
8402;DHT22;4238;48.404;9.498;2022-08-19T00:10:05;17.50;99.90
8402;DHT22;4238;48.404;9.498;2022-08-19T00:12:33;17.50;99.90
8402;DHT22;4238;48.404;9.498;2022-08-19T00:15:01;17.50;99.90
8402;DHT22;4238;48.404;9.498;2022-08-19T00:17:28;17.50;99.90
8402;DHT22;4238;48.404;9.498;2022-08-19T00:19:55;17.60;99.90
8402;DHT22;4238;48.404;9.498;2022-08-19T00:22:23;17.40;99.90
8402;DHT22;4238;48.404;9.498;2022-08-19T00:24:52;17.40;99.90
8402;DHT22;4238;48.404;9.498;2022-08-19T00:27:19;17.40;99.90
8402;DHT22;4238;48.404;9.498;2022-08-19T00:29:46;17.40;99.90
8402;DHT22;4238;48.404;9.498;2022-08-19T00:32:13;17.30;99.90
8402;DHT22;4238;48.404;9.498;2022-08-19T00:34:40;17.30;99.90
8402;DHT22;4238;48.404;9.498;2022-08-19T00:37:07;17.30;99.90
8402;DHT22;4238;48.404;9.498;2022-08-19T00:39:35;17.20;99.90
8402;DHT22;4238;48.404;9.498;2022-08-19T00:42:03;17.20;99.90
8402;DHT22;4238;48.404;9.498;2022-08-19T00:44:31;17.10;99.90
8402;DHT22;4238;48.404;9.498;2022-08-19T00:46:58;17.10;99.90
8402;DHT22;4238;48.404;9.498;2022-08-19T00:49:29;17.10;99.90
8402;DHT22;4238;48.404;9.498;2022-08-19T00:52:00;17.10;99.90
8402;DHT22;4238;48.404;9.498;2022-08-19T00:54:29;17.10;99.90
8402;DHT22;4238;48.404;9.498;2022-08-19T00:56:58;17.10;99.90
8402;DHT22;4238;48.404;9.498;2022-08-19T00:59:25;17.10;99.90
8402;DHT22;4238;48.404;9.498;2022-08-19T01:01:54;17.00;99.90
8402;DHT22;4238;48.404;9.498;2022-08-19T01:04:21;17.00;99.90
8402;DHT22;4238;48.404;9.498;2022-08-19T01:06:48;17.00;99.90
8402;DHT22;4238;48.404;9.498;2022-08-19T01:09:15;16.90;99.90
8402;DHT22;4238;48.404;9.498;2022-08-19T01:11:44;17.00;99.90
8402;DHT22;4238;48.404;9.498;2022-08-19T01:14:13;17.00;99.90
8402;DHT22;4238;48.404;9.498;2022-08-19T01:16:43;16.90;99.90
8402;DHT22;4238;48.404;9.498;2022-08-19T01:19:18;17.00;99.90
8402;DHT22;4238;48.404;9.498;2022-08-19T01:21:54;16.90;99.90
8402;DHT22;4238;48.404;9.498;2022-08-19T01:24:23;16.90;99.90
8402;DHT22;4238;48.404;9.498;2022-08-19T01:26:50;16.90;99.90
8402;DHT22;4238;48.404;9.498;2022-08-19T01:29:17;16.80;99.90
8402;DHT22;4238;48.404;9.498;2022-08-19T01:31:44;16.80;99.90
8402;DHT22;4238;48.404;9.498;2022-08-19T01:34:11;16.80;99.90
8402;DHT22;4238;48.404;9.498;2022-08-19T01:36:41;16.80;99.90
8402;DHT22;4238;48.404;9.498;2022-08-19T01:39:15;16.80;99.90
8402;DHT22;4238;48.404;9.498;2022-08-19T01:41:44;16.80;99.90
8402;DHT22;4238;48.404;9.498;2022-08-19T01:44:11;16.80;99.90
8402;DHT22;4238;48.404;9.498;2022-08-19T01:46:38;16.80;99.90
8402;DHT22;4238;48.404;9.498;2022-08-19T01:49:06;16.80;99.90
8402;DHT22;4238;48.404;9.498;2022-08-19T01:51:34;16.80;99.90
8402;DHT22;4238;48.404;9.498;2022-08-19T01:54:01;16.90;99.90
8402;DHT22;4238;48.404;9.498;2022-08-19T01:56:27;16.80;99.90
8402;DHT22;4238;48.404;9.498;2022-08-19T01:59:00;16.70;99.90
8402;DHT22;4238;48.404;9.498;2022-08-19T02:01:29;16.70;99.90
8402;DHT22;4238;48.404;9.498;2022-08-19T02:03:57;16.70;99.90
8402;DHT22;4238;48.404;9.498;2022-08-19T02:06:26;16.70;99.90
8402;DHT22;4238;48.404;9.498;2022-08-19T02:08:53;16.60;99.90
8402;DHT22;4238;48.404;9.498;2022-08-19T02:11:22;16.70;99.90
8402;DHT22;4238;48.404;9.498;2022-08-19T02:13:52;16.60;99.90
8402;DHT22;4238;48.404;9.498;2022-08-19T02:16:21;16.60;99.90
8402;DHT22;4238;48.404;9.498;2022-08-19T02:18:48;16.60;99.90
8402;DHT22;4238;48.404;9.498;2022-08-19T02:21:15;16.60;99.90
8402;DHT22;4238;48.404;9.498;2022-08-19T02:23:42;16.60;99.90
8402;DHT22;4238;48.404;9.498;2022-08-19T02:26:10;16.60;99.90
8402;DHT22;4238;48.404;9.498;2022-08-19T02:28:38;16.60;99.90
8402;DHT22;4238;48.404;9.498;2022-08-19T02:31:09;16.50;99.90
8402;DHT22;4238;48.404;9.498;2022-08-19T02:33:37;16.50;99.90
8402;DHT22;4238;48.404;9.498;2022-08-19T02:36:05;16.40;99.90
8402;DHT22;4238;48.404;9.498;2022-08-19T02:38:32;16.40;99.90
8402;DHT22;4238;48.404;9.498;2022-08-19T02:41:02;16.30;99.90
8402;DHT22;4238;48.404;9.498;2022-08-19T02:43:30;16.30;99.90
8402;DHT22;4238;48.404;9.498;2022-08-19T02:45:57;16.40;99.90
8402;DHT22;4238;48.404;9.498;2022-08-19T02:48:26;16.40;99.90
8402;DHT22;4238;48.404;9.498;2022-08-19T02:50:54;16.50;99.90
8402;DHT22;4238;48.404;9.498;2022-08-19T02:53:22;16.50;99.90
8402;DHT22;4238;48.404;9.498;2022-08-19T02:55:50;16.60;99.90
8402;DHT22;4238;48.404;9.498;2022-08-19T02:58:18;16.60;99.90
8402;DHT22;4238;48.404;9.498;2022-08-19T03:00:46;16.60;99.90
8402;DHT22;4238;48.404;9.498;2022-08-19T03:03:13;16.60;99.90
8402;DHT22;4238;48.404;9.498;2022-08-19T03:05:41;16.50;99.90
8402;DHT22;4238;48.404;9.498;2022-08-19T03:08:11;16.40;99.90
8402;DHT22;4238;48.404;9.498;2022-08-19T03:10:42;16.40;99.90
8402;DHT22;4238;48.404;9.498;2022-08-19T03:13:11;16.50;99.90
8402;DHT22;4238;48.404;9.498;2022-08-19T03:15:40;16.50;99.90
8402;DHT22;4238;48.404;9.498;2022-08-19T03:18:07;16.60;99.90
8402;DHT22;4238;48.404;9.498;2022-08-19T03:20:40;16.70;99.90
8402;DHT22;4238;48.404;9.498;2022-08-19T03:23:09;16.70;99.90
8402;DHT22;4238;48.404;9.498;2022-08-19T03:25:38;16.70;99.90
8402;DHT22;4238;48.404;9.498;2022-08-19T03:28:06;16.80;99.90
8402;DHT22;4238;48.404;9.498;2022-08-19T03:30:33;16.80;99.90
8402;DHT22;4238;48.404;9.498;2022-08-19T03:33:00;16.80;99.90
8402;DHT22;4238;48.404;9.498;2022-08-19T03:35:27;16.80;99.90
8402;DHT22;4238;48.404;9.498;2022-08-19T03:37:54;16.80;99.90
8402;DHT22;4238;48.404;9.498;2022-08-19T03:40:23;16.80;99.90
8402;DHT22;4238;48.404;9.498;2022-08-19T03:42:50;16.80;99.90
8402;DHT22;4238;48.404;9.498;2022-08-19T03:45:18;16.70;99.90
8402;DHT22;4238;48.404;9.498;2022-08-19T03:47:45;16.70;99.90
8402;DHT22;4238;48.404;9.498;2022-08-19T03:50:12;16.70;99.90
8402;DHT22;4238;48.404;9.498;2022-08-19T03:52:38;16.80;99.90
8402;DHT22;4238;48.404;9.498;2022-08-19T03:55:06;16.70;99.90
8402;DHT22;4238;48.404;9.498;2022-08-19T03:57:35;16.80;99.90
8402;DHT22;4238;48.404;9.498;2022-08-19T04:00:03;16.80;99.90
8402;DHT22;4238;48.404;9.498;2022-08-19T04:02:32;16.80;99.90
8402;DHT22;4238;48.404;9.498;2022-08-19T04:04:59;16.80;99.90
8402;DHT22;4238;48.404;9.498;2022-08-19T04:07:26;16.80;99.90
8402;DHT22;4238;48.404;9.498;2022-08-19T04:09:53;16.80;99.90
8402;DHT22;4238;48.404;9.498;2022-08-19T04:12:20;16.80;99.90
8402;DHT22;4238;48.404;9.498;2022-08-19T04:14:48;16.80;99.90
8402;DHT22;4238;48.404;9.498;2022-08-19T04:17:15;16.80;99.90
8402;DHT22;4238;48.404;9.498;2022-08-19T04:19:42;16.80;99.90
8402;DHT22;4238;48.404;9.498;2022-08-19T04:22:10;16.80;99.90
8402;DHT22;4238;48.404;9.498;2022-08-19T04:24:37;16.70;99.90
8402;DHT22;4238;48.404;9.498;2022-08-19T04:27:05;16.80;99.90
8402;DHT22;4238;48.404;9.498;2022-08-19T04:29:33;16.70;99.90
8402;DHT22;4238;48.404;9.498;2022-08-19T04:32:01;16.80;99.90
8402;DHT22;4238;48.404;9.498;2022-08-19T04:34:29;16.80;99.90
8402;DHT22;4238;48.404;9.498;2022-08-19T04:36:57;16.80;99.90
8402;DHT22;4238;48.404;9.498;2022-08-19T04:39:26;16.90;99.90
8402;DHT22;4238;48.404;9.498;2022-08-19T04:42:15;16.80;99.90
8402;DHT22;4238;48.404;9.498;2022-08-19T04:45:00;16.80;99.90
8402;DHT22;4238;48.404;9.498;2022-08-19T04:47:30;16.80;99.90
8402;DHT22;4238;48.404;9.498;2022-08-19T04:49:58;16.70;99.90
8402;DHT22;4238;48.404;9.498;2022-08-19T04:52:25;16.80;99.90
8402;DHT22;4238;48.404;9.498;2022-08-19T04:54:52;16.80;99.90
8402;DHT22;4238;48.404;9.498;2022-08-19T04:57:21;16.90;99.90
8402;DHT22;4238;48.404;9.498;2022-08-19T04:59:53;16.90;99.90
8402;DHT22;4238;48.404;9.498;2022-08-19T05:02:20;17.00;99.90
8402;DHT22;4238;48.404;9.498;2022-08-19T05:04:55;16.90;99.90
8402;DHT22;4238;48.404;9.498;2022-08-19T05:07:22;16.90;99.90
8402;DHT22;4238;48.404;9.498;2022-08-19T05:09:49;16.90;99.90
8402;DHT22;4238;48.404;9.498;2022-08-19T05:12:16;16.90;99.90
8402;DHT22;4238;48.404;9.498;2022-08-19T05:14:44;16.90;99.90
8402;DHT22;4238;48.404;9.498;2022-08-19T05:17:12;16.90;99.90
8402;DHT22;4238;48.404;9.498;2022-08-19T05:19:39;16.90;99.90
8402;DHT22;4238;48.404;9.498;2022-08-19T05:22:25;17.00;99.90
8402;DHT22;4238;48.404;9.498;2022-08-19T05:25:02;16.90;99.90
8402;DHT22;4238;48.404;9.498;2022-08-19T05:27:29;16.90;99.90
8402;DHT22;4238;48.404;9.498;2022-08-19T05:29:56;16.90;99.90
8402;DHT22;4238;48.404;9.498;2022-08-19T05:32:23;16.90;99.90
8402;DHT22;4238;48.404;9.498;2022-08-19T05:34:50;16.90;99.90
8402;DHT22;4238;48.404;9.498;2022-08-19T05:37:17;16.90;99.90
8402;DHT22;4238;48.404;9.498;2022-08-19T05:39:45;16.90;99.90
8402;DHT22;4238;48.404;9.498;2022-08-19T05:42:12;16.80;99.90
8402;DHT22;4238;48.404;9.498;2022-08-19T05:44:41;16.90;99.90
8402;DHT22;4238;48.404;9.498;2022-08-19T05:47:11;16.90;99.90
8402;DHT22;4238;48.404;9.498;2022-08-19T05:49:38;16.90;99.90
8402;DHT22;4238;48.404;9.498;2022-08-19T05:52:07;17.00;99.90
8402;DHT22;4238;48.404;9.498;2022-08-19T05:54:38;16.90;99.90
8402;DHT22;4238;48.404;9.498;2022-08-19T05:57:07;16.90;99.90
8402;DHT22;4238;48.404;9.498;2022-08-19T05:59:34;16.80;99.90
8402;DHT22;4238;48.404;9.498;2022-08-19T06:02:03;16.90;99.90
8402;DHT22;4238;48.404;9.498;2022-08-19T06:04:31;16.80;99.90
8402;DHT22;4238;48.404;9.498;2022-08-19T06:06:57;16.90;99.90
8402;DHT22;4238;48.404;9.498;2022-08-19T06:09:25;16.80;99.90
8402;DHT22;4238;48.404;9.498;2022-08-19T06:11:55;16.80;99.90
8402;DHT22;4238;48.404;9.498;2022-08-19T06:14:28;16.90;99.90
8402;DHT22;4238;48.404;9.498;2022-08-19T06:16:56;17.00;99.90
8402;DHT22;4238;48.404;9.498;2022-08-19T06:19:25;16.90;99.90
8402;DHT22;4238;48.404;9.498;2022-08-19T06:21:53;16.80;99.90
8402;DHT22;4238;48.404;9.498;2022-08-19T06:24:23;16.70;99.90
8402;DHT22;4238;48.404;9.498;2022-08-19T06:26:51;16.80;99.90
8402;DHT22;4238;48.404;9.498;2022-08-19T06:29:20;16.80;99.90
8402;DHT22;4238;48.404;9.498;2022-08-19T06:31:51;16.90;99.90
8402;DHT22;4238;48.404;9.498;2022-08-19T06:34:19;16.90;99.90
8402;DHT22;4238;48.404;9.498;2022-08-19T06:36:48;16.90;99.90
8402;DHT22;4238;48.404;9.498;2022-08-19T06:39:18;16.90;99.90
8402;DHT22;4238;48.404;9.498;2022-08-19T06:41:47;16.90;99.90
8402;DHT22;4238;48.404;9.498;2022-08-19T06:44:14;16.90;99.90
8402;DHT22;4238;48.404;9.498;2022-08-19T06:46:41;16.80;99.90
8402;DHT22;4238;48.404;9.498;2022-08-19T06:49:10;16.80;99.90
8402;DHT22;4238;48.404;9.498;2022-08-19T06:51:40;16.70;99.90
8402;DHT22;4238;48.404;9.498;2022-08-19T06:54:07;16.80;99.90
8402;DHT22;4238;48.404;9.498;2022-08-19T06:56:34;16.80;99.90
8402;DHT22;4238;48.404;9.498;2022-08-19T06:59:03;16.80;99.90
8402;DHT22;4238;48.404;9.498;2022-08-19T07:01:34;16.80;99.90
8402;DHT22;4238;48.404;9.498;2022-08-19T07:04:04;16.80;99.90
8402;DHT22;4238;48.404;9.498;2022-08-19T07:06:33;16.80;99.90
8402;DHT22;4238;48.404;9.498;2022-08-19T07:09:00;16.80;99.90
8402;DHT22;4238;48.404;9.498;2022-08-19T07:11:27;16.80;99.90
8402;DHT22;4238;48.404;9.498;2022-08-19T07:13:55;16.80;99.90
8402;DHT22;4238;48.404;9.498;2022-08-19T07:16:22;16.80;99.90
8402;DHT22;4238;48.404;9.498;2022-08-19T07:18:50;16.80;99.90
8402;DHT22;4238;48.404;9.498;2022-08-19T07:21:18;16.80;99.90
8402;DHT22;4238;48.404;9.498;2022-08-19T07:23:48;16.80;99.90
8402;DHT22;4238;48.404;9.498;2022-08-19T07:26:17;16.80;99.90
8402;DHT22;4238;48.404;9.498;2022-08-19T07:28:46;16.70;99.90
8402;DHT22;4238;48.404;9.498;2022-08-19T07:31:15;16.70;99.90
8402;DHT22;4238;48.404;9.498;2022-08-19T07:33:44;16.70;99.90
8402;DHT22;4238;48.404;9.498;2022-08-19T07:36:14;16.60;99.90
8402;DHT22;4238;48.404;9.498;2022-08-19T07:38:43;16.70;99.90
8402;DHT22;4238;48.404;9.498;2022-08-19T07:41:13;16.80;99.90
8402;DHT22;4238;48.404;9.498;2022-08-19T07:43:40;16.80;99.90
8402;DHT22;4238;48.404;9.498;2022-08-19T07:46:09;16.70;99.90
8402;DHT22;4238;48.404;9.498;2022-08-19T07:48:37;16.70;99.90
8402;DHT22;4238;48.404;9.498;2022-08-19T07:51:07;16.70;99.90
8402;DHT22;4238;48.404;9.498;2022-08-19T07:53:36;16.70;99.90
8402;DHT22;4238;48.404;9.498;2022-08-19T07:56:04;16.80;99.90
8402;DHT22;4238;48.404;9.498;2022-08-19T07:58:40;16.80;99.90
8402;DHT22;4238;48.404;9.498;2022-08-19T08:01:09;16.80;99.90
8402;DHT22;4238;48.404;9.498;2022-08-19T08:03:37;16.80;99.90
8402;DHT22;4238;48.404;9.498;2022-08-19T08:06:21;16.80;99.90
8402;DHT22;4238;48.404;9.498;2022-08-19T08:09:07;16.80;99.90
8402;DHT22;4238;48.404;9.498;2022-08-19T08:11:48;16.80;99.90
8402;DHT22;4238;48.404;9.498;2022-08-19T08:14:23;16.80;99.90
8402;DHT22;4238;48.404;9.498;2022-08-19T08:16:50;16.70;99.90
8402;DHT22;4238;48.404;9.498;2022-08-19T08:19:19;16.70;99.90
8402;DHT22;4238;48.404;9.498;2022-08-19T08:21:47;16.70;99.90
8402;DHT22;4238;48.404;9.498;2022-08-19T08:24:15;16.60;99.90
8402;DHT22;4238;48.404;9.498;2022-08-19T08:26:42;16.60;99.90
8402;DHT22;4238;48.404;9.498;2022-08-19T08:29:09;16.60;99.90
8402;DHT22;4238;48.404;9.498;2022-08-19T08:31:39;16.60;99.90
8402;DHT22;4238;48.404;9.498;2022-08-19T08:34:07;16.60;99.90
8402;DHT22;4238;48.404;9.498;2022-08-19T08:36:36;16.70;99.90
8402;DHT22;4238;48.404;9.498;2022-08-19T08:39:07;16.60;99.90
8402;DHT22;4238;48.404;9.498;2022-08-19T08:41:39;16.60;99.90
8402;DHT22;4238;48.404;9.498;2022-08-19T08:44:14;16.70;99.90
8402;DHT22;4238;48.404;9.498;2022-08-19T08:46:48;16.70;99.90
8402;DHT22;4238;48.404;9.498;2022-08-19T08:49:24;16.70;99.90
8402;DHT22;4238;48.404;9.498;2022-08-19T08:51:59;16.70;99.90
8402;DHT22;4238;48.404;9.498;2022-08-19T08:54:32;16.80;99.90
8402;DHT22;4238;48.404;9.498;2022-08-19T08:57:00;16.80;99.90
8402;DHT22;4238;48.404;9.498;2022-08-19T08:59:31;16.90;99.90
8402;DHT22;4238;48.404;9.498;2022-08-19T09:02:02;16.80;99.90
8402;DHT22;4238;48.404;9.498;2022-08-19T09:04:29;16.80;99.90
8402;DHT22;4238;48.404;9.498;2022-08-19T09:09:34;16.70;99.90
8402;DHT22;4238;48.404;9.498;2022-08-19T09:12:06;16.80;99.90
8402;DHT22;4238;48.404;9.498;2022-08-19T09:14:40;16.80;99.90
8402;DHT22;4238;48.404;9.498;2022-08-19T09:17:13;16.80;99.90
8402;DHT22;4238;48.404;9.498;2022-08-19T09:19:49;16.80;99.90
8402;DHT22;4238;48.404;9.498;2022-08-19T09:22:16;16.90;99.90
8402;DHT22;4238;48.404;9.498;2022-08-19T09:24:47;16.90;99.90
8402;DHT22;4238;48.404;9.498;2022-08-19T09:27:14;16.90;99.90
8402;DHT22;4238;48.404;9.498;2022-08-19T09:29:42;16.90;99.90
8402;DHT22;4238;48.404;9.498;2022-08-19T09:32:09;16.90;99.90
8402;DHT22;4238;48.404;9.498;2022-08-19T09:34:37;16.90;99.90
8402;DHT22;4238;48.404;9.498;2022-08-19T09:37:04;16.90;99.90
8402;DHT22;4238;48.404;9.498;2022-08-19T09:39:31;16.80;99.90
8402;DHT22;4238;48.404;9.498;2022-08-19T09:41:59;16.90;99.90
8402;DHT22;4238;48.404;9.498;2022-08-19T09:44:26;16.90;99.90
8402;DHT22;4238;48.404;9.498;2022-08-19T09:46:52;16.90;99.90
8402;DHT22;4238;48.404;9.498;2022-08-19T09:49:20;16.90;99.90
8402;DHT22;4238;48.404;9.498;2022-08-19T09:51:51;16.90;99.90
8402;DHT22;4238;48.404;9.498;2022-08-19T09:54:22;16.90;99.90
8402;DHT22;4238;48.404;9.498;2022-08-19T09:56:49;16.90;99.90
8402;DHT22;4238;48.404;9.498;2022-08-19T09:59:16;16.90;99.90
8402;DHT22;4238;48.404;9.498;2022-08-19T10:01:43;17.00;99.90
8402;DHT22;4238;48.404;9.498;2022-08-19T10:04:10;17.00;99.90
8402;DHT22;4238;48.404;9.498;2022-08-19T10:06:39;17.00;99.90
8402;DHT22;4238;48.404;9.498;2022-08-19T10:09:07;17.00;99.90
8402;DHT22;4238;48.404;9.498;2022-08-19T10:11:36;17.00;99.90
8402;DHT22;4238;48.404;9.498;2022-08-19T10:14:03;17.10;99.90
8402;DHT22;4238;48.404;9.498;2022-08-19T10:16:32;17.10;99.90
8402;DHT22;4238;48.404;9.498;2022-08-19T10:18:59;17.00;99.90
8402;DHT22;4238;48.404;9.498;2022-08-19T10:21:27;17.00;99.90
8402;DHT22;4238;48.404;9.498;2022-08-19T10:23:58;17.10;99.90
8402;DHT22;4238;48.404;9.498;2022-08-19T10:26:28;17.20;99.90
8402;DHT22;4238;48.404;9.498;2022-08-19T10:28:56;17.10;99.90
8402;DHT22;4238;48.404;9.498;2022-08-19T10:31:26;17.10;99.90
8402;DHT22;4238;48.404;9.498;2022-08-19T10:33:54;17.10;99.90
8402;DHT22;4238;48.404;9.498;2022-08-19T10:36:25;17.10;99.90
8402;DHT22;4238;48.404;9.498;2022-08-19T10:38:54;17.10;99.90
8402;DHT22;4238;48.404;9.498;2022-08-19T10:41:27;17.10;99.90
8402;DHT22;4238;48.404;9.498;2022-08-19T10:43:58;17.10;99.90
8402;DHT22;4238;48.404;9.498;2022-08-19T10:46:27;17.10;99.90
8402;DHT22;4238;48.404;9.498;2022-08-19T10:48:54;17.10;99.90
8402;DHT22;4238;48.404;9.498;2022-08-19T10:51:21;17.10;99.90
8402;DHT22;4238;48.404;9.498;2022-08-19T10:54:06;17.10;99.90
8402;DHT22;4238;48.404;9.498;2022-08-19T10:56:35;17.10;99.90
8402;DHT22;4238;48.404;9.498;2022-08-19T10:59:23;17.00;99.90
8402;DHT22;4238;48.404;9.498;2022-08-19T11:01:53;17.10;99.90
8402;DHT22;4238;48.404;9.498;2022-08-19T11:04:21;17.10;99.90
8402;DHT22;4238;48.404;9.498;2022-08-19T11:06:48;17.10;99.90
8402;DHT22;4238;48.404;9.498;2022-08-19T11:09:17;17.20;99.90
8402;DHT22;4238;48.404;9.498;2022-08-19T11:11:45;17.10;99.90
8402;DHT22;4238;48.404;9.498;2022-08-19T11:14:16;17.10;99.90
8402;DHT22;4238;48.404;9.498;2022-08-19T11:16:47;17.10;99.90
8402;DHT22;4238;48.404;9.498;2022-08-19T11:19:15;17.10;99.90
8402;DHT22;4238;48.404;9.498;2022-08-19T11:21:46;17.20;99.90
8402;DHT22;4238;48.404;9.498;2022-08-19T11:24:16;17.10;99.90
8402;DHT22;4238;48.404;9.498;2022-08-19T11:26:45;17.10;99.90
8402;DHT22;4238;48.404;9.498;2022-08-19T11:29:13;17.10;99.90
8402;DHT22;4238;48.404;9.498;2022-08-19T11:31:42;17.20;99.90
8402;DHT22;4238;48.404;9.498;2022-08-19T11:34:12;17.20;99.90
8402;DHT22;4238;48.404;9.498;2022-08-19T11:36:41;17.30;99.90
8402;DHT22;4238;48.404;9.498;2022-08-19T11:39:09;17.30;99.90
8402;DHT22;4238;48.404;9.498;2022-08-19T11:41:36;17.30;99.90
8402;DHT22;4238;48.404;9.498;2022-08-19T11:44:04;17.20;99.90
8402;DHT22;4238;48.404;9.498;2022-08-19T11:46:35;17.20;99.90
8402;DHT22;4238;48.404;9.498;2022-08-19T11:49:04;17.30;99.90
8402;DHT22;4238;48.404;9.498;2022-08-19T11:51:33;17.30;99.90
8402;DHT22;4238;48.404;9.498;2022-08-19T11:54:01;17.30;99.90
8402;DHT22;4238;48.404;9.498;2022-08-19T11:56:28;17.30;99.90
8402;DHT22;4238;48.404;9.498;2022-08-19T11:58:55;17.30;99.90
8402;DHT22;4238;48.404;9.498;2022-08-19T12:01:25;17.30;99.90
8402;DHT22;4238;48.404;9.498;2022-08-19T12:03:53;17.30;99.90
8402;DHT22;4238;48.404;9.498;2022-08-19T12:06:23;17.40;99.90
8402;DHT22;4238;48.404;9.498;2022-08-19T12:08:54;17.40;99.90
8402;DHT22;4238;48.404;9.498;2022-08-19T12:11:21;17.40;99.90
8402;DHT22;4238;48.404;9.498;2022-08-19T12:13:49;17.30;99.90
8402;DHT22;4238;48.404;9.498;2022-08-19T12:16:18;17.30;99.90
8402;DHT22;4238;48.404;9.498;2022-08-19T12:18:47;17.30;99.90
8402;DHT22;4238;48.404;9.498;2022-08-19T12:21:19;17.30;99.90
8402;DHT22;4238;48.404;9.498;2022-08-19T12:23:47;17.30;99.90
8402;DHT22;4238;48.404;9.498;2022-08-19T12:26:15;17.30;99.90
8402;DHT22;4238;48.404;9.498;2022-08-19T12:28:43;17.30;99.90
8402;DHT22;4238;48.404;9.498;2022-08-19T12:31:10;17.30;99.90
8402;DHT22;4238;48.404;9.498;2022-08-19T12:33:38;17.30;99.90
8402;DHT22;4238;48.404;9.498;2022-08-19T12:36:08;17.30;99.90
8402;DHT22;4238;48.404;9.498;2022-08-19T12:38:37;17.30;99.90
8402;DHT22;4238;48.404;9.498;2022-08-19T12:41:05;17.40;99.90
8402;DHT22;4238;48.404;9.498;2022-08-19T12:43:32;17.40;99.90
8402;DHT22;4238;48.404;9.498;2022-08-19T12:46:00;17.40;99.90
8402;DHT22;4238;48.404;9.498;2022-08-19T12:48:27;17.40;99.90
8402;DHT22;4238;48.404;9.498;2022-08-19T12:50:54;17.40;99.90
8402;DHT22;4238;48.404;9.498;2022-08-19T12:53:23;17.40;99.90
8402;DHT22;4238;48.404;9.498;2022-08-19T12:55:55;17.30;99.90
8402;DHT22;4238;48.404;9.498;2022-08-19T12:58:22;17.30;99.90
8402;DHT22;4238;48.404;9.498;2022-08-19T13:00:50;17.30;99.90
8402;DHT22;4238;48.404;9.498;2022-08-19T13:03:17;17.30;99.90
8402;DHT22;4238;48.404;9.498;2022-08-19T13:05:44;17.20;99.90
8402;DHT22;4238;48.404;9.498;2022-08-19T13:08:11;17.20;99.90
8402;DHT22;4238;48.404;9.498;2022-08-19T13:10:39;17.20;99.90
8402;DHT22;4238;48.404;9.498;2022-08-19T13:13:08;17.10;99.90
8402;DHT22;4238;48.404;9.498;2022-08-19T13:15:38;17.20;99.90
8402;DHT22;4238;48.404;9.498;2022-08-19T13:18:07;17.20;99.90
8402;DHT22;4238;48.404;9.498;2022-08-19T13:20:37;17.20;99.90
8402;DHT22;4238;48.404;9.498;2022-08-19T13:23:06;17.20;99.90
8402;DHT22;4238;48.404;9.498;2022-08-19T13:25:33;17.20;99.90
8402;DHT22;4238;48.404;9.498;2022-08-19T13:28:03;17.20;99.90
8402;DHT22;4238;48.404;9.498;2022-08-19T13:30:32;17.20;99.90
8402;DHT22;4238;48.404;9.498;2022-08-19T13:33:17;17.20;99.90
8402;DHT22;4238;48.404;9.498;2022-08-19T13:35:47;17.30;99.90
8402;DHT22;4238;48.404;9.498;2022-08-19T13:38:16;17.30;99.90
8402;DHT22;4238;48.404;9.498;2022-08-19T13:40:43;17.40;99.90
8402;DHT22;4238;48.404;9.498;2022-08-19T13:43:11;17.40;99.90
8402;DHT22;4238;48.404;9.498;2022-08-19T13:45:39;17.40;99.90
8402;DHT22;4238;48.404;9.498;2022-08-19T13:48:07;17.40;99.90
8402;DHT22;4238;48.404;9.498;2022-08-19T13:50:37;17.40;99.90
8402;DHT22;4238;48.404;9.498;2022-08-19T13:53:06;17.40;99.90
8402;DHT22;4238;48.404;9.498;2022-08-19T13:55:33;17.40;99.90
8402;DHT22;4238;48.404;9.498;2022-08-19T13:58:01;17.40;99.90
8402;DHT22;4238;48.404;9.498;2022-08-19T14:00:31;17.40;99.90
8402;DHT22;4238;48.404;9.498;2022-08-19T14:02:59;17.40;99.90
8402;DHT22;4238;48.404;9.498;2022-08-19T14:05:27;17.40;99.90
8402;DHT22;4238;48.404;9.498;2022-08-19T14:07:55;17.50;99.90
8402;DHT22;4238;48.404;9.498;2022-08-19T14:10:23;17.50;99.90
8402;DHT22;4238;48.404;9.498;2022-08-19T14:12:53;17.40;99.90
8402;DHT22;4238;48.404;9.498;2022-08-19T14:15:21;17.40;99.90
8402;DHT22;4238;48.404;9.498;2022-08-19T14:17:51;17.50;99.90
8402;DHT22;4238;48.404;9.498;2022-08-19T14:20:19;17.50;99.90
8402;DHT22;4238;48.404;9.498;2022-08-19T14:22:47;17.50;99.90
8402;DHT22;4238;48.404;9.498;2022-08-19T14:25:17;17.50;99.90
8402;DHT22;4238;48.404;9.498;2022-08-19T14:27:44;17.50;99.90
8402;DHT22;4238;48.404;9.498;2022-08-19T14:30:14;17.50;99.90
8402;DHT22;4238;48.404;9.498;2022-08-19T14:32:41;17.50;99.90
8402;DHT22;4238;48.404;9.498;2022-08-19T14:35:13;17.50;99.90
8402;DHT22;4238;48.404;9.498;2022-08-19T14:37:41;17.50;99.90
8402;DHT22;4238;48.404;9.498;2022-08-19T14:40:09;17.50;99.90
8402;DHT22;4238;48.404;9.498;2022-08-19T14:42:37;17.50;99.90
8402;DHT22;4238;48.404;9.498;2022-08-19T14:45:04;17.50;99.90
8402;DHT22;4238;48.404;9.498;2022-08-19T14:47:32;17.50;99.90
8402;DHT22;4238;48.404;9.498;2022-08-19T14:49:59;17.50;99.90
8402;DHT22;4238;48.404;9.498;2022-08-19T14:52:27;17.50;99.90
8402;DHT22;4238;48.404;9.498;2022-08-19T14:54:54;17.50;99.90
8402;DHT22;4238;48.404;9.498;2022-08-19T14:57:21;17.50;99.90
8402;DHT22;4238;48.404;9.498;2022-08-19T14:59:48;17.50;99.90
8402;DHT22;4238;48.404;9.498;2022-08-19T15:02:16;17.50;99.90
8402;DHT22;4238;48.404;9.498;2022-08-19T15:04:42;17.60;99.90
8402;DHT22;4238;48.404;9.498;2022-08-19T15:07:10;17.60;99.90
8402;DHT22;4238;48.404;9.498;2022-08-19T15:09:38;17.60;99.90
8402;DHT22;4238;48.404;9.498;2022-08-19T15:12:07;17.60;99.90
8402;DHT22;4238;48.404;9.498;2022-08-19T15:14:36;17.60;99.90
8402;DHT22;4238;48.404;9.498;2022-08-19T15:17:04;17.60;99.90
8402;DHT22;4238;48.404;9.498;2022-08-19T15:19:32;17.60;99.90
8402;DHT22;4238;48.404;9.498;2022-08-19T15:22:01;17.60;99.90
8402;DHT22;4238;48.404;9.498;2022-08-19T15:24:28;17.70;99.90
8402;DHT22;4238;48.404;9.498;2022-08-19T15:26:56;17.70;99.90
8402;DHT22;4238;48.404;9.498;2022-08-19T15:29:23;17.70;99.90
8402;DHT22;4238;48.404;9.498;2022-08-19T15:31:51;17.70;99.90
8402;DHT22;4238;48.404;9.498;2022-08-19T15:34:20;17.70;99.90
8402;DHT22;4238;48.404;9.498;2022-08-19T15:36:47;17.70;99.90
8402;DHT22;4238;48.404;9.498;2022-08-19T15:39:15;17.80;99.90
8402;DHT22;4238;48.404;9.498;2022-08-19T15:41:44;17.70;99.90
8402;DHT22;4238;48.404;9.498;2022-08-19T15:44:15;17.80;99.90
8402;DHT22;4238;48.404;9.498;2022-08-19T15:46:44;17.80;99.90
8402;DHT22;4238;48.404;9.498;2022-08-19T15:49:12;17.80;99.90
8402;DHT22;4238;48.404;9.498;2022-08-19T15:51:41;17.70;99.90
8402;DHT22;4238;48.404;9.498;2022-08-19T15:54:13;17.70;99.90
8402;DHT22;4238;48.404;9.498;2022-08-19T15:56:40;17.70;99.90
8402;DHT22;4238;48.404;9.498;2022-08-19T15:59:38;17.60;99.90
8402;DHT22;4238;48.404;9.498;2022-08-19T16:02:25;17.70;99.90
8402;DHT22;4238;48.404;9.498;2022-08-19T16:05:13;17.60;99.90
8402;DHT22;4238;48.404;9.498;2022-08-19T16:07:58;17.60;99.90
8402;DHT22;4238;48.404;9.498;2022-08-19T16:10:25;17.60;99.90
8402;DHT22;4238;48.404;9.498;2022-08-19T16:12:52;17.70;99.90
8402;DHT22;4238;48.404;9.498;2022-08-19T16:15:20;17.60;99.90